createdAt,value
2023-03-11T00:02:13.419Z,100.00
2023-03-11T00:04:40.095Z,100.00
2023-03-11T00:07:07.500Z,100.00
2023-03-11T00:09:34.430Z,100.00
2023-03-11T00:12:01.249Z,100.00
2023-03-11T00:14:27.885Z,100.00
2023-03-11T00:16:54.542Z,100.00
2023-03-11T00:19:21.338Z,100.00
2023-03-11T00:21:47.824Z,100.00
2023-03-11T00:24:14.396Z,100.00
2023-03-11T00:26:40.917Z,100.00
2023-03-11T00:29:07.440Z,100.00
2023-03-11T00:31:33.932Z,100.00
2023-03-11T00:34:00.568Z,100.00
2023-03-11T00:36:31.900Z,100.00
2023-03-11T00:38:58.889Z,100.00
2023-03-11T00:41:25.389Z,100.00
2023-03-11T00:43:52.228Z,100.00
2023-03-11T00:46:18.856Z,100.00
2023-03-11T00:48:45.356Z,100.00
2023-03-11T00:51:13.611Z,100.00
2023-03-11T00:53:40.203Z,100.00
2023-03-11T00:56:08.112Z,100.00
2023-03-11T00:58:35.864Z,100.00
2023-03-11T01:01:07.361Z,100.00
2023-03-11T01:03:34.185Z,100.00
2023-03-11T01:06:00.760Z,100.00
2023-03-11T01:08:27.308Z,100.00
2023-03-11T01:14:46.719Z,100.00
2023-03-11T01:17:13.244Z,100.00
2023-03-11T01:19:39.804Z,100.00
2023-03-11T01:22:06.325Z,98.33
2023-03-11T01:24:32.893Z,99.67
2023-03-11T01:26:59.402Z,98.93
2023-03-11T01:29:25.914Z,100.00
2023-03-11T01:31:52.558Z,100.00
2023-03-11T01:34:19.203Z,100.00
2023-03-11T01:36:46.040Z,96.06
2023-03-11T01:41:53.111Z,100.00
2023-03-11T01:44:19.651Z,100.00
2023-03-11T01:46:52.438Z,100.00
2023-03-11T01:49:19.640Z,100.00
2023-03-11T01:51:48.815Z,96.75
2023-03-11T01:54:18.469Z,95.77
2023-03-11T01:56:46.423Z,100.00
2023-03-11T01:59:14.564Z,100.00
2023-03-11T02:01:47.646Z,100.00
2023-03-11T02:04:14.190Z,100.00
2023-03-11T02:09:24.200Z,100.00
2023-03-11T02:11:51.400Z,98.10
2023-03-11T02:14:18.071Z,91.78
2023-03-11T02:16:44.577Z,83.28
2023-03-11T02:19:18.508Z,78.66
2023-03-11T02:21:45.220Z,82.00
2023-03-11T02:24:38.088Z,77.01
2023-03-11T02:27:12.529Z,74.27
2023-03-11T02:29:39.290Z,70.29
2023-03-11T02:32:07.356Z,68.07
2023-03-11T02:34:35.342Z,62.69
2023-03-11T02:37:04.954Z,61.15
2023-03-11T02:39:33.436Z,63.77
2023-03-11T02:42:00.672Z,63.87
2023-03-11T02:44:27.285Z,70.65
2023-03-11T02:46:53.968Z,73.00
2023-03-11T02:49:20.880Z,69.02
2023-03-11T02:51:47.539Z,77.50
2023-03-11T02:54:14.288Z,77.91
2023-03-11T02:56:40.826Z,74.33
2023-03-11T02:59:07.344Z,79.38
2023-03-11T03:01:33.923Z,79.34
2023-03-11T03:04:00.515Z,80.23
2023-03-11T03:06:28.725Z,82.57
2023-03-11T03:08:55.534Z,75.70
2023-03-11T03:11:22.077Z,80.40
2023-03-11T03:13:48.736Z,81.71
2023-03-11T03:16:15.296Z,83.68
2023-03-11T03:18:41.875Z,83.11
2023-03-11T03:21:08.390Z,83.77
2023-03-11T03:23:35.257Z,81.16
2023-03-11T03:26:02.399Z,82.47
2023-03-11T03:28:28.933Z,81.35
2023-03-11T03:30:55.513Z,78.87
2023-03-11T03:33:22.202Z,81.50
2023-03-11T03:35:48.825Z,81.67
2023-03-11T03:38:15.359Z,74.81
2023-03-11T03:40:46.028Z,63.97
2023-03-11T03:43:12.614Z,67.42
2023-03-11T03:45:39.221Z,69.11
2023-03-11T03:48:06.488Z,72.78
2023-03-11T03:50:33.075Z,65.97
2023-03-11T03:52:59.615Z,69.86
2023-03-11T03:55:26.189Z,60.39
2023-03-11T03:57:52.751Z,67.79
2023-03-11T04:00:19.544Z,58.30
2023-03-11T04:02:46.061Z,59.02
2023-03-11T04:05:12.592Z,64.30
2023-03-11T04:07:39.123Z,69.55
2023-03-11T04:10:05.997Z,58.18
2023-03-11T04:12:32.657Z,61.71
2023-03-11T04:14:59.169Z,61.37
2023-03-11T04:17:25.696Z,58.09
2023-03-11T04:19:52.217Z,54.33
2023-03-11T04:22:18.727Z,58.79
2023-03-11T04:24:45.285Z,58.35
2023-03-11T04:27:11.786Z,56.97
2023-03-11T04:29:38.306Z,64.04
2023-03-11T04:32:05.032Z,67.46
2023-03-11T04:34:31.563Z,55.93
2023-03-11T04:36:58.198Z,63.85
2023-03-11T04:39:24.736Z,58.82
2023-03-11T04:41:51.243Z,56.64
2023-03-11T04:44:17.796Z,54.50
2023-03-11T04:46:44.307Z,55.74
2023-03-11T04:49:10.887Z,54.68
2023-03-11T04:51:37.512Z,58.15
2023-03-11T04:54:04.134Z,51.87
2023-03-11T04:56:30.692Z,51.35
2023-03-11T04:58:57.239Z,51.13
2023-03-11T05:01:23.804Z,53.82
2023-03-11T05:03:50.313Z,52.06
2023-03-11T05:06:16.885Z,55.96
2023-03-11T05:08:43.394Z,52.95
2023-03-11T05:11:09.910Z,50.68
2023-03-11T05:13:36.492Z,50.09
2023-03-11T05:16:03.085Z,51.04
2023-03-11T05:18:31.225Z,48.73
2023-03-11T05:20:57.752Z,53.04
2023-03-11T05:23:24.273Z,51.97
2023-03-11T05:25:50.843Z,52.79
2023-03-11T05:28:17.457Z,50.64
2023-03-11T05:30:43.959Z,51.27
2023-03-11T05:33:10.478Z,52.40
2023-03-11T05:35:37.094Z,50.44
2023-03-11T05:38:03.674Z,50.41
2023-03-11T05:43:11.489Z,49.00
2023-03-11T05:48:13.360Z,49.94
2023-03-11T05:50:39.894Z,50.66
2023-03-11T05:53:06.383Z,51.22
2023-03-11T05:55:32.917Z,54.30
2023-03-11T05:57:59.475Z,51.80
2023-03-11T06:00:29.140Z,54.28
2023-03-11T06:02:55.697Z,52.84
2023-03-11T06:05:22.252Z,53.66
2023-03-11T06:07:48.907Z,53.20
2023-03-11T06:10:15.453Z,52.91
2023-03-11T06:12:42.028Z,55.05
2023-03-11T06:15:08.776Z,53.09
2023-03-11T06:17:35.321Z,55.69
2023-03-11T06:22:41.134Z,51.12
2023-03-11T06:25:08.222Z,50.00
2023-03-11T06:27:34.703Z,51.61
2023-03-11T06:30:01.289Z,51.76
2023-03-11T06:32:29.733Z,48.84
2023-03-11T06:34:56.401Z,47.02
2023-03-11T06:37:25.131Z,48.03
2023-03-11T06:39:55.089Z,46.35
2023-03-11T06:42:24.035Z,47.09
2023-03-11T06:44:50.565Z,46.54
2023-03-11T06:49:26.239Z,45.00
2023-03-11T06:54:32.479Z,45.74
2023-03-11T06:56:59.052Z,47.50
2023-03-11T06:59:25.605Z,45.74
2023-03-11T07:01:52.195Z,47.81
2023-03-11T07:04:18.754Z,46.12
2023-03-11T07:06:45.350Z,46.30
2023-03-11T07:09:12.050Z,46.74
2023-03-11T07:11:38.760Z,45.82
2023-03-11T07:14:05.586Z,45.76
2023-03-11T07:16:32.475Z,44.29
2023-03-11T07:19:01.018Z,44.57
2023-03-11T07:21:28.315Z,44.45
2023-03-11T07:24:48.440Z,44.92
2023-03-11T07:29:55.422Z,45.53
2023-03-11T07:32:21.975Z,44.09
2023-03-11T07:34:48.510Z,43.46
2023-03-11T07:37:15.415Z,43.00
2023-03-11T07:39:42.029Z,43.41
2023-03-11T07:42:26.458Z,42.91
2023-03-11T07:44:53.097Z,43.27
2023-03-11T07:47:19.919Z,42.87
2023-03-11T07:49:46.462Z,43.14
2023-03-11T07:52:13.005Z,43.01
2023-03-11T07:54:39.523Z,43.67
2023-03-11T07:57:07.484Z,42.91
2023-03-11T07:59:34.042Z,44.64
2023-03-11T08:02:02.858Z,43.90
2023-03-11T08:04:30.524Z,41.70
2023-03-11T08:06:57.102Z,43.14
2023-03-11T08:09:23.657Z,41.90
2023-03-11T08:11:50.158Z,42.53
2023-03-11T08:14:16.763Z,40.52
2023-03-11T08:16:43.276Z,40.88
2023-03-11T08:19:11.814Z,42.04
2023-03-11T08:21:38.412Z,40.77
2023-03-11T08:24:06.813Z,41.08
2023-03-11T08:26:33.695Z,40.23
2023-03-11T08:29:00.280Z,40.16
2023-03-11T08:31:29.591Z,41.43
2023-03-11T08:34:07.474Z,40.53
2023-03-11T08:36:34.911Z,40.61
2023-03-11T08:39:01.899Z,39.48
2023-03-11T08:41:28.775Z,39.58
2023-03-11T08:43:55.298Z,40.17
2023-03-11T08:46:26.621Z,39.98
2023-03-11T08:48:53.840Z,38.70
2023-03-11T08:51:20.463Z,37.74
2023-03-11T08:56:27.020Z,37.73
2023-03-11T08:58:53.733Z,38.21
2023-03-11T09:01:20.460Z,38.59
2023-03-11T09:03:47.373Z,38.61
2023-03-11T09:06:15.546Z,39.30
2023-03-11T09:08:42.528Z,39.64
2023-03-11T09:11:09.593Z,36.92
2023-03-11T09:13:36.264Z,38.02
2023-03-11T09:16:05.961Z,37.98
2023-03-11T09:18:32.491Z,37.82
2023-03-11T09:21:00.474Z,37.46
2023-03-11T09:23:26.999Z,38.28
2023-03-11T09:28:33.954Z,37.17
2023-03-11T09:31:00.619Z,37.45
2023-03-11T09:33:27.252Z,37.15
2023-03-11T09:35:53.960Z,38.66
2023-03-11T09:38:20.516Z,36.09
2023-03-11T09:40:51.574Z,38.00
2023-03-11T09:43:18.066Z,35.79
2023-03-11T09:45:57.117Z,36.08
2023-03-11T09:48:36.855Z,36.48
2023-03-11T09:51:09.146Z,38.19
2023-03-11T09:53:41.427Z,36.97
2023-03-11T09:56:11.113Z,35.87
2023-03-11T09:58:40.076Z,37.29
2023-03-11T10:01:18.928Z,36.98
2023-03-11T10:03:45.857Z,36.21
2023-03-11T10:06:29.441Z,36.64
2023-03-11T10:09:14.413Z,36.52
2023-03-11T10:11:52.495Z,36.34
2023-03-11T10:14:29.134Z,36.53
2023-03-11T10:17:12.821Z,36.05
2023-03-11T10:19:46.913Z,36.29
2023-03-11T10:22:19.420Z,36.90
2023-03-11T10:24:46.068Z,36.06
2023-03-11T10:27:16.993Z,35.81
2023-03-11T10:29:54.863Z,35.42
2023-03-11T10:32:44.515Z,36.54
2023-03-11T10:35:29.254Z,36.73
2023-03-11T10:38:00.846Z,36.09
2023-03-11T10:43:05.847Z,36.79
2023-03-11T10:45:36.676Z,37.63
2023-03-11T10:48:03.283Z,36.91
2023-03-11T10:50:51.421Z,35.58
2023-03-11T10:53:19.771Z,35.58
2023-03-11T10:55:56.631Z,37.11
2023-03-11T10:58:28.130Z,35.82
2023-03-11T11:01:01.240Z,35.92
2023-03-11T11:03:28.587Z,36.29
2023-03-11T11:06:06.200Z,34.83
2023-03-11T11:08:33.149Z,36.77
2023-03-11T11:11:01.026Z,35.50
2023-03-11T11:13:30.312Z,35.67
2023-03-11T11:15:59.056Z,36.70
2023-03-11T11:18:28.105Z,37.29
2023-03-11T11:20:54.733Z,35.42
2023-03-11T11:23:31.135Z,35.80
2023-03-11T11:25:59.024Z,35.16
2023-03-11T11:28:25.850Z,35.45
2023-03-11T11:30:52.414Z,35.29
2023-03-11T11:33:40.073Z,36.59
2023-03-11T11:36:12.175Z,35.94
2023-03-11T11:38:38.765Z,34.60
2023-03-11T11:41:05.730Z,34.75
2023-03-11T11:43:35.246Z,35.22
2023-03-11T11:46:13.006Z,34.78
2023-03-11T11:48:42.724Z,35.23
2023-03-11T11:51:17.401Z,35.78
2023-03-11T11:53:56.306Z,36.38
2023-03-11T11:56:24.092Z,36.03
2023-03-11T11:58:50.582Z,36.00
2023-03-11T12:01:22.215Z,35.23
2023-03-11T12:04:07.377Z,35.98
2023-03-11T12:07:18.629Z,34.97
2023-03-11T12:09:51.378Z,35.13
2023-03-11T12:12:24.271Z,35.49
2023-03-11T12:15:08.665Z,36.17
2023-03-11T12:17:37.278Z,34.40
2023-03-11T12:20:12.344Z,35.94
2023-03-11T12:22:41.910Z,35.75
2023-03-11T12:25:22.136Z,35.23
2023-03-11T12:27:59.744Z,35.77
2023-03-11T12:30:31.540Z,34.66
2023-03-11T12:33:03.576Z,34.98
2023-03-11T12:35:31.750Z,35.93
2023-03-11T12:38:01.350Z,34.89
2023-03-11T12:40:46.124Z,35.63
2023-03-11T12:43:30.993Z,34.72
2023-03-11T12:46:01.080Z,35.05
2023-03-11T12:48:27.567Z,34.96
2023-03-11T12:50:54.691Z,34.99
2023-03-11T12:53:41.103Z,34.94
2023-03-11T12:59:06.363Z,34.42
2023-03-11T13:01:48.099Z,33.98
2023-03-11T13:04:25.326Z,34.75
2023-03-11T13:06:55.153Z,34.58
2023-03-11T13:09:21.815Z,35.01
2023-03-11T13:11:48.832Z,35.51
2023-03-11T13:14:16.360Z,34.94
2023-03-11T13:16:43.866Z,33.70
2023-03-11T13:19:29.245Z,34.23
2023-03-11T13:21:59.577Z,34.68
2023-03-11T13:24:26.163Z,34.60
2023-03-11T13:26:58.506Z,34.28
2023-03-11T13:31:38.476Z,34.25
2023-03-11T13:37:10.038Z,34.94
2023-03-11T13:42:37.669Z,34.11
2023-03-11T13:45:05.091Z,34.66
2023-03-11T13:47:32.210Z,34.39
2023-03-11T13:50:03.332Z,34.46
2023-03-11T13:52:34.994Z,34.58
2023-03-11T13:55:06.450Z,35.07
2023-03-11T13:57:36.956Z,34.42
2023-03-11T14:00:17.913Z,35.00
2023-03-11T14:02:51.143Z,35.06
2023-03-11T14:05:20.233Z,34.57
2023-03-11T14:07:46.823Z,34.90
2023-03-11T14:10:25.521Z,35.31
2023-03-11T14:12:52.809Z,35.19
2023-03-11T14:15:21.699Z,34.01
2023-03-11T14:17:48.894Z,34.48
2023-03-11T14:20:22.431Z,34.76
2023-03-11T14:22:50.609Z,34.55
2023-03-11T14:25:32.218Z,35.50
2023-03-11T14:28:01.029Z,35.22
2023-03-11T14:30:31.757Z,34.87
2023-03-11T14:33:01.555Z,35.00
2023-03-11T14:35:28.475Z,35.24
2023-03-11T14:37:55.307Z,35.08
2023-03-11T14:40:23.676Z,35.94
2023-03-11T14:42:53.933Z,35.35
2023-03-11T14:45:22.689Z,35.72
2023-03-11T14:48:04.682Z,35.40
2023-03-11T14:50:33.750Z,35.71
2023-03-11T14:53:29.330Z,35.56
2023-03-11T14:55:57.903Z,36.03
2023-03-11T14:58:29.234Z,35.35
2023-03-11T15:01:02.208Z,35.62
2023-03-11T15:03:33.778Z,36.31
2023-03-11T15:06:06.204Z,36.79
2023-03-11T15:11:44.093Z,35.83
2023-03-11T15:14:16.803Z,36.37
2023-03-11T15:16:43.338Z,36.37
2023-03-11T15:19:23.018Z,36.96
2023-03-11T15:21:51.097Z,36.25
2023-03-11T15:24:22.390Z,36.64
2023-03-11T15:27:00.660Z,36.46
2023-03-11T15:29:27.593Z,37.11
2023-03-11T15:31:54.528Z,37.23
2023-03-11T15:34:23.780Z,37.33
2023-03-11T15:36:50.301Z,36.79
2023-03-11T15:39:25.679Z,37.04
2023-03-11T15:41:58.097Z,37.78
2023-03-11T15:44:27.950Z,38.25
2023-03-11T15:46:54.503Z,38.17
2023-03-11T15:52:01.571Z,37.29
2023-03-11T15:54:28.226Z,37.73
2023-03-11T15:56:55.452Z,37.55
2023-03-11T16:01:30.134Z,38.23
2023-03-11T16:03:56.773Z,38.47
2023-03-11T16:06:23.348Z,38.00
2023-03-11T16:08:50.246Z,37.96
2023-03-11T16:11:18.812Z,37.97
2023-03-11T16:13:45.448Z,38.75
2023-03-11T16:16:18.484Z,38.78
2023-03-11T16:18:45.055Z,39.40
2023-03-11T16:21:17.236Z,38.52
2023-03-11T16:23:51.483Z,38.36
2023-03-11T16:26:19.149Z,40.03
2023-03-11T16:28:45.673Z,39.39
2023-03-11T16:31:12.262Z,39.62
2023-03-11T16:33:39.118Z,39.16
2023-03-11T16:36:05.851Z,39.85
2023-03-11T16:38:41.419Z,39.94
2023-03-11T16:41:07.916Z,41.49
2023-03-11T16:43:34.512Z,40.35
2023-03-11T16:46:01.081Z,40.38
2023-03-11T16:48:27.882Z,39.72
2023-03-11T16:50:54.448Z,41.07
2023-03-11T16:53:21.018Z,41.33
2023-03-11T16:55:47.904Z,42.20
2023-03-11T16:58:14.725Z,43.33
2023-03-11T17:00:42.093Z,43.08
2023-03-11T17:03:11.239Z,44.61
2023-03-11T17:05:37.797Z,45.42
2023-03-11T17:08:04.536Z,42.64
2023-03-11T17:10:42.810Z,42.84
2023-03-11T17:13:10.332Z,42.04
2023-03-11T17:15:38.430Z,43.53
2023-03-11T17:18:05.589Z,45.44
2023-03-11T17:20:32.193Z,44.77
2023-03-11T17:22:58.779Z,44.74
2023-03-11T17:25:25.297Z,44.20
2023-03-11T17:27:51.854Z,45.82
2023-03-11T17:30:35.537Z,45.76
2023-03-11T17:33:02.932Z,46.73
2023-03-11T17:38:00.240Z,47.10
2023-03-11T17:40:29.342Z,48.23
2023-03-11T17:42:56.216Z,48.21
2023-03-11T17:45:22.714Z,47.01
2023-03-11T17:47:49.214Z,45.54
2023-03-11T17:50:15.847Z,46.29
2023-03-11T17:55:18.774Z,45.32
2023-03-11T17:57:46.034Z,45.99
2023-03-11T18:00:14.959Z,47.08
2023-03-11T18:02:41.809Z,46.27
2023-03-11T18:05:09.455Z,48.29
2023-03-11T18:07:39.060Z,48.56
2023-03-11T18:10:06.763Z,48.16
2023-03-11T18:12:33.741Z,48.42
2023-03-11T18:15:01.381Z,49.04
2023-03-11T18:17:29.026Z,49.93
2023-03-11T18:19:55.658Z,49.23
2023-03-11T18:22:22.162Z,48.29
2023-03-11T18:24:48.740Z,50.14
2023-03-11T18:27:15.240Z,49.00
2023-03-11T18:29:41.851Z,50.10
2023-03-11T18:32:08.477Z,49.37
2023-03-11T18:34:35.475Z,49.13
2023-03-11T18:37:02.185Z,47.30
2023-03-11T18:39:28.685Z,46.57
2023-03-11T18:41:55.187Z,47.03
2023-03-11T18:46:53.627Z,49.87
2023-03-11T18:49:20.141Z,50.31
2023-03-11T18:51:46.689Z,49.83
2023-03-11T18:54:13.188Z,51.99
2023-03-11T18:56:39.695Z,51.92
2023-03-11T18:59:06.280Z,52.36
2023-03-11T19:01:34.491Z,49.89
2023-03-11T19:04:01.181Z,50.76
2023-03-11T19:06:28.626Z,50.37
2023-03-11T19:08:55.927Z,50.57
2023-03-11T19:11:23.334Z,52.95
2023-03-11T19:13:50.356Z,51.84
2023-03-11T19:16:18.372Z,51.11
2023-03-11T19:18:44.979Z,51.27
2023-03-11T19:21:12.698Z,51.17
2023-03-11T19:23:39.240Z,52.02
2023-03-11T19:26:05.991Z,50.07
2023-03-11T19:28:32.479Z,53.22
2023-03-11T19:30:59.449Z,53.30
2023-03-11T19:33:26.384Z,51.37
2023-03-11T19:35:53.797Z,52.06
2023-03-11T19:38:20.620Z,53.16
2023-03-11T19:40:51.246Z,53.62
2023-03-11T19:43:19.357Z,53.59
2023-03-11T19:45:52.014Z,54.51
2023-03-11T19:48:20.090Z,52.51
2023-03-11T19:50:50.136Z,53.51
2023-03-11T19:53:17.171Z,52.66
2023-03-11T19:55:44.608Z,53.82
2023-03-11T19:58:11.500Z,54.41
2023-03-11T20:00:39.583Z,54.24
2023-03-11T20:03:06.157Z,54.70
2023-03-11T20:05:34.512Z,55.70
2023-03-11T20:08:01.009Z,53.54
2023-03-11T20:10:27.580Z,55.19
2023-03-11T20:13:02.008Z,55.40
2023-03-11T20:15:29.410Z,53.28
2023-03-11T20:18:51.581Z,54.24
2023-03-11T20:21:18.172Z,53.94
2023-03-11T20:23:44.700Z,54.52
2023-03-11T20:26:15.273Z,56.03
2023-03-11T20:28:41.888Z,57.20
2023-03-11T20:31:12.580Z,56.62
2023-03-11T20:33:39.218Z,56.00
2023-03-11T20:36:06.877Z,55.16
2023-03-11T20:38:33.587Z,57.14
2023-03-11T20:41:00.256Z,56.17
2023-03-11T20:43:26.842Z,55.51
2023-03-11T20:45:53.378Z,55.42
2023-03-11T20:48:19.999Z,57.52
2023-03-11T20:50:46.562Z,55.33
2023-03-11T20:53:13.178Z,56.29
2023-03-11T20:55:41.042Z,57.04
2023-03-11T20:58:07.949Z,58.04
2023-03-11T21:00:35.146Z,58.35
2023-03-11T21:03:02.004Z,55.78
2023-03-11T21:06:18.114Z,57.71
2023-03-11T21:08:44.707Z,57.17
2023-03-11T21:11:11.323Z,57.18
2023-03-11T21:13:38.150Z,58.27
2023-03-11T21:16:05.969Z,58.91
2023-03-11T21:18:32.740Z,58.56
2023-03-11T21:20:59.339Z,59.99
2023-03-11T21:23:26.046Z,59.88
2023-03-11T21:26:02.606Z,60.36
2023-03-11T21:28:29.306Z,58.26
2023-03-11T21:33:13.314Z,62.12
2023-03-11T21:35:40.114Z,60.72
2023-03-11T21:38:06.671Z,63.43
2023-03-11T21:40:33.454Z,62.32
2023-03-11T21:43:00.156Z,62.72
2023-03-11T21:45:26.733Z,64.18
2023-03-11T21:47:53.486Z,66.08
2023-03-11T21:50:20.281Z,66.16
2023-03-11T21:52:46.871Z,65.50
2023-03-11T21:55:13.571Z,65.94
2023-03-11T21:58:17.854Z,68.37
2023-03-11T22:00:44.578Z,68.58
2023-03-11T22:03:11.288Z,68.16
2023-03-11T22:05:38.007Z,67.60
2023-03-11T22:08:05.221Z,69.12
2023-03-11T22:10:32.423Z,67.40
2023-03-11T22:12:59.127Z,69.36
2023-03-11T22:15:25.844Z,67.63
2023-03-11T22:17:52.573Z,67.98
2023-03-11T22:20:19.148Z,70.25
2023-03-11T22:22:45.611Z,70.30
2023-03-11T22:25:12.258Z,70.28
2023-03-11T22:27:40.311Z,69.63
2023-03-11T22:30:07.309Z,71.60
2023-03-11T22:32:34.764Z,71.79
2023-03-11T22:37:39.996Z,72.07
2023-03-11T22:40:10.346Z,72.43
2023-03-11T22:42:37.263Z,72.13
2023-03-11T22:45:40.671Z,71.68
2023-03-11T22:48:07.715Z,71.26
2023-03-11T22:50:34.547Z,72.00
2023-03-11T22:53:01.145Z,73.15
2023-03-11T22:55:27.688Z,73.29
2023-03-11T22:57:54.272Z,73.22
2023-03-11T23:00:22.098Z,73.30
2023-03-11T23:03:03.513Z,72.66
2023-03-11T23:05:30.208Z,72.18
2023-03-11T23:07:56.699Z,73.05
2023-03-11T23:09:34.967Z,73.44
2023-03-11T23:12:03.730Z,73.19
2023-03-11T23:14:43.586Z,71.89
2023-03-11T23:17:11.419Z,71.94
2023-03-11T23:19:38.023Z,72.08
2023-03-11T23:22:04.619Z,73.23
2023-03-11T23:24:31.184Z,74.20
2023-03-11T23:27:48.585Z,73.69
2023-03-11T23:30:15.894Z,73.72
2023-03-11T23:32:42.889Z,73.71
2023-03-11T23:35:09.771Z,74.11
2023-03-11T23:37:36.290Z,73.81
2023-03-11T23:40:05.031Z,72.55
2023-03-11T23:42:35.103Z,73.87
2023-03-11T23:45:01.728Z,74.70
2023-03-11T23:47:28.761Z,75.41
2023-03-11T23:49:55.322Z,75.40
2023-03-11T23:52:21.915Z,75.74
2023-03-11T23:54:48.453Z,75.44
2023-03-11T23:57:14.974Z,75.62
2023-03-11T23:59:41.514Z,75.05
